createdAt,value
2024-01-16T00:00:54.428Z,95.68
2024-01-16T00:02:56.548Z,95.33
2024-01-16T00:04:59.333Z,94.74
2024-01-16T00:07:01.672Z,94.57
2024-01-16T00:09:04.502Z,94.51
2024-01-16T00:11:06.281Z,94.70
2024-01-16T00:13:08.054Z,94.74
2024-01-16T00:15:10.805Z,94.81
2024-01-16T00:17:12.897Z,94.54
2024-01-16T00:19:15.123Z,94.33
2024-01-16T00:21:17.153Z,94.04
2024-01-16T00:23:19.263Z,94.03
2024-01-16T00:25:21.544Z,93.90
2024-01-16T00:27:23.479Z,93.86
2024-01-16T00:29:25.649Z,93.51
2024-01-16T00:31:27.512Z,93.27
2024-01-16T00:33:29.400Z,93.13
2024-01-16T00:35:31.434Z,93.32
2024-01-16T00:37:33.329Z,93.20
2024-01-16T00:39:36.233Z,93.12
2024-01-16T00:41:38.300Z,93.34
2024-01-16T00:43:40.524Z,93.68
2024-01-16T00:45:43.975Z,94.16
2024-01-16T00:47:45.899Z,94.36
2024-01-16T00:49:48.688Z,94.31
2024-01-16T00:51:53.706Z,94.44
2024-01-16T00:53:55.455Z,94.43
2024-01-16T00:55:57.306Z,94.80
2024-01-16T00:57:59.005Z,94.77
2024-01-16T01:00:00.661Z,94.63
2024-01-16T01:02:04.883Z,94.44
2024-01-16T01:04:06.920Z,93.89
2024-01-16T01:06:11.344Z,93.69
2024-01-16T01:08:13.237Z,93.93
2024-01-16T01:10:16.822Z,94.08
2024-01-16T01:12:18.656Z,94.15
2024-01-16T01:14:20.444Z,94.62
2024-01-16T01:16:22.568Z,94.89
2024-01-16T01:18:24.746Z,94.99
2024-01-16T01:20:27.153Z,95.17
2024-01-16T01:22:29.365Z,95.45
2024-01-16T01:24:31.353Z,95.44
2024-01-16T01:26:33.648Z,95.02
2024-01-16T01:28:35.514Z,94.80
2024-01-16T01:30:37.281Z,94.60
2024-01-16T01:32:39.694Z,94.85
2024-01-16T01:34:47.463Z,95.21
2024-01-16T01:36:49.455Z,95.37
2024-01-16T01:38:51.182Z,95.97
2024-01-16T01:40:53.062Z,96.41
2024-01-16T01:42:54.798Z,96.77
2024-01-16T01:44:56.513Z,96.93
2024-01-16T01:46:58.977Z,96.82
2024-01-16T01:49:01.125Z,96.61
2024-01-16T01:51:04.206Z,96.74
2024-01-16T01:53:05.885Z,97.21
2024-01-16T01:55:13.797Z,97.51
2024-01-16T01:57:16.873Z,97.72
2024-01-16T01:59:19.934Z,97.95
2024-01-16T02:01:23.771Z,98.31
2024-01-16T02:03:29.187Z,98.90
2024-01-16T02:05:32.418Z,98.73
2024-01-16T02:07:36.178Z,98.66
2024-01-16T02:09:39.029Z,98.26
2024-01-16T02:11:42.473Z,98.04
2024-01-16T02:13:44.524Z,98.32
2024-01-16T02:15:46.867Z,98.57
2024-01-16T02:17:49.173Z,98.79
2024-01-16T02:19:51.300Z,99.38
2024-01-16T02:22:00.163Z,99.38
2024-01-16T02:24:02.926Z,99.79
2024-01-16T02:26:05.791Z,99.67
2024-01-16T02:28:07.504Z,99.64
2024-01-16T02:30:09.400Z,99.22
2024-01-16T02:32:14.166Z,99.39
2024-01-16T02:34:16.175Z,99.61
2024-01-16T02:36:18.122Z,99.71
2024-01-16T02:38:20.367Z,99.94
2024-01-16T02:40:22.451Z,100.00
2024-01-16T02:42:24.088Z,100.00
2024-01-16T02:44:26.003Z,100.00
2024-01-16T02:46:27.717Z,100.00
2024-01-16T02:48:30.180Z,100.00
2024-01-16T02:50:32.074Z,100.00
2024-01-16T02:52:33.907Z,100.00
2024-01-16T02:54:35.585Z,99.96
2024-01-16T02:56:37.421Z,100.00
2024-01-16T02:58:39.562Z,100.00
2024-01-16T03:00:41.344Z,100.00
2024-01-16T03:02:43.201Z,100.00
2024-01-16T03:04:45.168Z,100.00
2024-01-16T03:06:46.880Z,100.00
2024-01-16T03:08:48.788Z,100.00
2024-01-16T03:10:53.008Z,99.96
2024-01-16T03:12:57.109Z,99.64
2024-01-16T03:14:58.824Z,99.58
2024-01-16T03:17:03.169Z,99.92
2024-01-16T03:19:04.919Z,99.79
2024-01-16T03:21:07.944Z,99.71
2024-01-16T03:23:09.980Z,99.72
2024-01-16T03:25:13.510Z,99.54
2024-01-16T03:27:15.365Z,99.56
2024-01-16T03:29:19.882Z,99.83
2024-01-16T03:31:22.781Z,99.96
2024-01-16T03:33:24.722Z,99.72
2024-01-16T03:35:26.906Z,99.28
2024-01-16T03:37:28.841Z,98.61
2024-01-16T03:39:30.656Z,98.36
2024-01-16T03:41:32.637Z,98.80
2024-01-16T03:43:35.915Z,99.06
2024-01-16T03:45:37.685Z,98.96
2024-01-16T03:47:39.497Z,99.01
2024-01-16T03:49:41.342Z,98.83
2024-01-16T03:51:47.478Z,98.83
2024-01-16T03:53:49.728Z,98.72
2024-01-16T03:55:52.392Z,98.90
2024-01-16T03:57:54.321Z,98.72
2024-01-16T03:59:56.059Z,98.93
2024-01-16T04:01:57.828Z,98.75
2024-01-16T04:03:59.558Z,98.25
2024-01-16T04:06:01.611Z,97.75
2024-01-16T04:08:05.561Z,97.69
2024-01-16T04:10:08.323Z,98.25
2024-01-16T04:12:10.279Z,98.52
2024-01-16T04:14:12.252Z,98.51
2024-01-16T04:16:14.246Z,98.44
2024-01-16T04:18:16.037Z,98.32
2024-01-16T04:20:17.960Z,98.34
2024-01-16T04:22:19.998Z,98.15
2024-01-16T04:24:21.749Z,98.39
2024-01-16T04:26:23.621Z,98.09
2024-01-16T04:28:25.404Z,98.00
2024-01-16T04:30:27.222Z,97.86
2024-01-16T04:32:29.005Z,97.33
2024-01-16T04:34:31.302Z,96.98
2024-01-16T04:36:33.144Z,96.75
2024-01-16T04:38:34.995Z,96.84
2024-01-16T04:40:37.012Z,96.90
2024-01-16T04:42:38.852Z,96.89
2024-01-16T04:44:40.626Z,96.94
2024-01-16T04:46:42.695Z,96.38
2024-01-16T04:48:44.844Z,96.27
2024-01-16T04:50:48.312Z,96.35
2024-01-16T04:52:52.975Z,96.53
2024-01-16T04:54:56.234Z,96.40
2024-01-16T04:56:57.949Z,96.22
2024-01-16T04:58:59.842Z,96.02
2024-01-16T05:01:01.658Z,95.33
2024-01-16T05:03:07.307Z,95.59
2024-01-16T05:05:09.206Z,95.73
2024-01-16T05:07:11.042Z,95.60
2024-01-16T05:09:13.440Z,95.28
2024-01-16T05:11:15.494Z,95.57
2024-01-16T05:13:17.359Z,96.04
2024-01-16T05:15:19.124Z,96.60
2024-01-16T05:17:22.518Z,96.60
2024-01-16T05:19:24.648Z,96.30
2024-01-16T05:21:26.471Z,96.12
2024-01-16T05:23:28.646Z,96.13
2024-01-16T05:25:31.363Z,96.47
2024-01-16T05:27:33.075Z,96.69
2024-01-16T05:29:34.926Z,96.74
2024-01-16T05:31:42.667Z,96.89
2024-01-16T05:33:44.944Z,97.14
2024-01-16T05:35:46.894Z,97.18
2024-01-16T05:37:49.050Z,97.17
2024-01-16T05:39:50.795Z,97.24
2024-01-16T05:41:53.203Z,97.41
2024-01-16T05:43:55.020Z,97.11
2024-01-16T05:45:56.881Z,97.11
2024-01-16T05:47:59.820Z,96.83
2024-01-16T05:50:01.765Z,96.78
2024-01-16T05:52:03.700Z,96.71
2024-01-16T05:54:05.631Z,96.62
2024-01-16T05:56:07.292Z,97.11
2024-01-16T05:58:11.708Z,97.01
2024-01-16T06:00:19.139Z,96.93
2024-01-16T06:02:20.834Z,96.61
2024-01-16T06:04:23.309Z,96.62
2024-01-16T06:06:25.127Z,96.52
2024-01-16T06:08:26.938Z,96.41
2024-01-16T06:10:28.888Z,96.27
2024-01-16T06:12:30.542Z,96.44
2024-01-16T06:14:32.243Z,96.49
2024-01-16T06:16:34.049Z,96.48
2024-01-16T06:18:37.389Z,96.30
2024-01-16T06:20:40.776Z,96.04
2024-01-16T06:22:42.678Z,95.76
2024-01-16T06:24:44.388Z,95.82
2024-01-16T06:26:48.292Z,96.01
2024-01-16T06:28:50.353Z,95.91
2024-01-16T06:30:52.333Z,96.07
2024-01-16T06:32:54.326Z,95.84
2024-01-16T06:34:56.572Z,95.60
2024-01-16T06:36:58.468Z,95.43
2024-01-16T06:39:00.296Z,95.29
2024-01-16T06:41:02.819Z,95.06
2024-01-16T06:43:04.652Z,95.21
2024-01-16T06:45:07.100Z,94.98
2024-01-16T06:47:08.949Z,94.80
2024-01-16T06:49:10.892Z,94.70
2024-01-16T06:51:15.150Z,94.59
2024-01-16T06:53:17.329Z,94.22
2024-01-16T06:55:19.657Z,93.60
2024-01-16T06:57:21.410Z,92.94
2024-01-16T06:59:23.261Z,92.12
2024-01-16T07:01:26.781Z,91.61
2024-01-16T07:03:28.427Z,92.00
2024-01-16T07:05:31.003Z,92.11
2024-01-16T07:07:33.152Z,91.45
2024-01-16T07:09:35.125Z,91.03
2024-01-16T07:11:37.114Z,89.96
2024-01-16T07:13:39.139Z,88.43
2024-01-16T07:15:40.893Z,86.59
2024-01-16T07:17:42.667Z,86.46
2024-01-16T07:19:44.812Z,86.97
2024-01-16T07:21:46.846Z,86.16
2024-01-16T07:23:49.802Z,84.07
2024-01-16T07:25:52.013Z,84.99
2024-01-16T07:27:54.102Z,84.70
2024-01-16T07:29:55.936Z,84.70
2024-01-16T07:31:57.878Z,84.89
2024-01-16T07:33:59.779Z,85.08
2024-01-16T07:36:02.112Z,85.10
2024-01-16T07:38:05.859Z,84.67
2024-01-16T07:40:10.933Z,84.68
2024-01-16T07:42:12.904Z,84.90
2024-01-16T07:44:14.660Z,85.02
2024-01-16T07:46:17.629Z,85.01
2024-01-16T07:48:19.692Z,84.47
2024-01-16T07:50:21.905Z,84.77
2024-01-16T07:52:23.680Z,85.19
2024-01-16T07:54:27.312Z,84.92
2024-01-16T07:56:29.115Z,85.16
2024-01-16T07:58:31.153Z,85.00
2024-01-16T08:00:32.884Z,84.78
2024-01-16T08:02:38.624Z,84.18
2024-01-16T08:04:40.581Z,83.30
2024-01-16T08:06:44.355Z,83.16
2024-01-16T08:08:47.617Z,83.72
2024-01-16T08:10:49.410Z,84.03
2024-01-16T08:12:51.141Z,83.55
2024-01-16T08:14:53.566Z,84.16
2024-01-16T08:16:55.544Z,84.30
2024-01-16T08:18:57.752Z,84.36
2024-01-16T08:20:59.611Z,84.02
2024-01-16T08:23:01.342Z,83.94
2024-01-16T08:25:06.081Z,83.30
2024-01-16T08:27:07.758Z,83.35
2024-01-16T08:29:09.520Z,83.74
2024-01-16T08:31:11.302Z,84.03
2024-01-16T08:33:13.848Z,83.97
2024-01-16T08:35:16.003Z,84.01
2024-01-16T08:37:17.923Z,83.97
2024-01-16T08:39:19.796Z,84.30
2024-01-16T08:41:21.662Z,84.71
2024-01-16T08:43:25.526Z,84.85
2024-01-16T08:45:27.693Z,84.67
2024-01-16T08:47:30.708Z,84.78
2024-01-16T08:49:33.967Z,84.48
2024-01-16T08:51:36.633Z,84.22
2024-01-16T08:53:39.139Z,83.95
2024-01-16T08:55:41.381Z,84.20
2024-01-16T08:57:43.081Z,83.67
2024-01-16T08:59:45.574Z,83.02
2024-01-16T09:01:47.423Z,82.89
2024-01-16T09:03:49.306Z,82.46
2024-01-16T09:05:51.155Z,81.94
2024-01-16T09:07:54.017Z,81.66
2024-01-16T09:09:56.213Z,81.48
2024-01-16T09:11:59.290Z,81.11
2024-01-16T09:14:03.687Z,81.12
2024-01-16T09:16:06.574Z,80.26
2024-01-16T09:18:08.452Z,80.66
2024-01-16T09:20:10.828Z,80.47
2024-01-16T09:22:12.900Z,80.02
2024-01-16T09:24:14.668Z,80.10
2024-01-16T09:26:16.456Z,81.01
2024-01-16T09:28:19.689Z,80.81
2024-01-16T09:30:23.986Z,80.13
2024-01-16T09:32:25.881Z,80.01
2024-01-16T09:34:27.862Z,79.98
2024-01-16T09:36:29.647Z,79.95
2024-01-16T09:38:32.441Z,79.28
2024-01-16T09:40:36.551Z,78.62
2024-01-16T09:43:58.849Z,78.77
2024-01-16T09:46:07.382Z,77.90
2024-01-16T09:48:11.868Z,76.63
2024-01-16T09:50:15.750Z,76.01
2024-01-16T09:52:17.756Z,75.36
2024-01-16T09:54:19.561Z,75.49
2024-01-16T09:56:26.329Z,75.50
2024-01-16T09:58:30.121Z,75.46
2024-01-16T10:00:35.544Z,74.79
2024-01-16T10:02:39.095Z,74.34
2024-01-16T10:04:42.983Z,74.94
2024-01-16T10:06:50.460Z,75.09
2024-01-16T10:08:52.619Z,74.14
2024-01-16T10:10:55.124Z,74.47
2024-01-16T10:12:57.931Z,74.48
2024-01-16T10:15:00.767Z,74.32
2024-01-16T10:17:07.240Z,72.53
2024-01-16T10:19:09.553Z,71.10
2024-01-16T10:21:23.341Z,71.29
2024-01-16T10:23:26.324Z,72.14
2024-01-16T10:25:28.188Z,71.93
2024-01-16T10:27:32.112Z,71.75
2024-01-16T10:29:43.395Z,72.02
2024-01-16T10:31:52.030Z,72.08
2024-01-16T10:33:53.953Z,72.44
2024-01-16T10:36:17.889Z,73.03
2024-01-16T10:38:27.159Z,73.87
2024-01-16T10:40:32.303Z,73.70
2024-01-16T10:42:34.197Z,73.80
2024-01-16T10:44:35.959Z,73.52
2024-01-16T10:46:40.496Z,72.71
2024-01-16T10:48:59.533Z,72.87
2024-01-16T10:51:03.887Z,73.84
2024-01-16T10:53:07.335Z,72.98
2024-01-16T10:55:10.809Z,73.13
2024-01-16T10:57:14.812Z,72.20
2024-01-16T10:59:25.710Z,71.85
2024-01-16T11:01:27.963Z,70.39
2024-01-16T11:03:49.955Z,69.42
2024-01-16T11:05:53.613Z,68.92
2024-01-16T11:07:58.497Z,68.86
2024-01-16T11:10:01.633Z,68.59
2024-01-16T11:12:04.676Z,68.91
2024-01-16T11:14:08.113Z,68.89
2024-01-16T11:16:12.682Z,68.18
2024-01-16T11:18:15.734Z,68.18
2024-01-16T11:20:37.562Z,68.07
2024-01-16T11:22:43.029Z,68.32
2024-01-16T11:24:45.595Z,68.37
2024-01-16T11:26:47.625Z,66.89
2024-01-16T11:28:49.630Z,66.69
2024-01-16T11:30:52.600Z,66.96
2024-01-16T11:32:54.598Z,67.00
2024-01-16T11:34:57.281Z,67.13
2024-01-16T11:37:01.518Z,66.99
2024-01-16T11:39:03.750Z,66.96
2024-01-16T11:41:05.626Z,67.33
2024-01-16T11:43:40.518Z,66.78
2024-01-16T11:45:50.661Z,67.15
2024-01-16T11:48:13.322Z,65.84
2024-01-16T11:50:31.177Z,65.06
2024-01-16T11:52:44.357Z,65.69
2024-01-16T11:54:47.944Z,65.72
2024-01-16T11:57:08.328Z,65.73
2024-01-16T11:59:51.415Z,66.00
2024-01-16T12:01:58.889Z,66.14
2024-01-16T12:04:07.418Z,65.96
2024-01-16T12:06:10.696Z,66.11
2024-01-16T12:08:12.966Z,65.95
2024-01-16T12:10:14.981Z,65.90
2024-01-16T12:12:17.208Z,65.41
2024-01-16T12:14:19.292Z,65.64
2024-01-16T12:16:20.976Z,65.35
2024-01-16T12:18:31.026Z,65.55
2024-01-16T12:20:41.464Z,65.22
2024-01-16T12:22:43.468Z,65.17
2024-01-16T12:24:46.720Z,64.95
2024-01-16T12:26:48.676Z,64.74
2024-01-16T12:28:58.585Z,65.50
2024-01-16T12:31:02.870Z,65.41
2024-01-16T12:35:13.178Z,65.93
2024-01-16T12:37:15.562Z,66.00
2024-01-16T12:39:20.368Z,65.82
2024-01-16T12:41:29.547Z,66.00
2024-01-16T12:43:38.666Z,66.17
2024-01-16T12:45:42.399Z,66.15
2024-01-16T12:47:46.329Z,66.02
2024-01-16T12:49:49.088Z,66.48
2024-01-16T12:51:51.946Z,66.71
2024-01-16T12:53:53.850Z,66.77
2024-01-16T12:56:01.207Z,66.98
2024-01-16T12:58:25.848Z,66.62
2024-01-16T13:00:28.128Z,65.43
2024-01-16T13:02:30.192Z,64.96
2024-01-16T13:04:32.140Z,65.44
2024-01-16T13:06:34.899Z,65.46
2024-01-16T13:08:37.002Z,65.65
2024-01-16T13:10:39.264Z,65.77
2024-01-16T13:12:41.246Z,66.20
2024-01-16T13:14:43.199Z,65.48
2024-01-16T13:16:45.037Z,65.21
2024-01-16T13:18:46.788Z,65.60
2024-01-16T13:20:52.013Z,65.06
2024-01-16T13:22:53.861Z,65.02
2024-01-16T13:25:05.358Z,64.90
2024-01-16T13:27:14.258Z,64.48
2024-01-16T13:29:17.126Z,64.64
2024-01-16T13:31:18.997Z,64.48
2024-01-16T13:33:21.104Z,64.66
2024-01-16T13:35:23.133Z,64.64
2024-01-16T13:37:24.937Z,64.79
2024-01-16T13:39:27.546Z,65.07
2024-01-16T13:41:29.225Z,64.99
2024-01-16T13:43:30.980Z,65.59
2024-01-16T13:45:32.756Z,65.85
2024-01-16T13:47:34.774Z,65.86
2024-01-16T13:49:37.326Z,66.06
2024-01-16T13:51:39.239Z,66.38
2024-01-16T13:53:41.057Z,66.71
2024-01-16T13:55:42.771Z,67.33
2024-01-16T13:57:44.538Z,67.87
2024-01-16T13:59:46.244Z,68.49
2024-01-16T14:01:47.954Z,69.45
2024-01-16T14:03:49.740Z,70.39
2024-01-16T14:05:51.625Z,71.73
2024-01-16T14:07:53.584Z,71.53
2024-01-16T14:09:55.511Z,72.18
2024-01-16T14:11:57.971Z,72.64
2024-01-16T14:14:00.799Z,72.82
2024-01-16T14:16:02.516Z,72.76
2024-01-16T14:18:04.761Z,73.09
2024-01-16T14:20:07.151Z,73.38
2024-01-16T14:22:09.224Z,73.77
2024-01-16T14:24:11.198Z,73.99
2024-01-16T14:26:12.991Z,74.20
2024-01-16T14:28:20.844Z,74.24
2024-01-16T14:30:26.772Z,74.47
2024-01-16T14:32:28.583Z,74.77
2024-01-16T14:34:30.470Z,75.14
2024-01-16T14:36:32.242Z,75.07
2024-01-16T14:38:34.050Z,74.90
2024-01-16T14:40:36.672Z,74.88
2024-01-16T14:42:38.980Z,74.95
2024-01-16T14:44:40.743Z,75.01
2024-01-16T14:46:48.614Z,75.05
2024-01-16T14:48:52.031Z,75.02
2024-01-16T14:50:54.073Z,74.83
2024-01-16T14:52:55.903Z,74.80
2024-01-16T14:54:57.614Z,74.85
2024-01-16T14:56:59.433Z,75.02
2024-01-16T14:59:01.208Z,75.49
2024-01-16T15:01:03.003Z,75.27
2024-01-16T15:03:06.361Z,75.08
2024-01-16T15:05:08.267Z,75.12
2024-01-16T15:07:10.951Z,75.00
2024-01-16T15:09:14.055Z,74.71
2024-01-16T15:11:18.651Z,74.76
2024-01-16T15:13:21.697Z,74.81
2024-01-16T15:15:24.528Z,74.96
2024-01-16T15:17:28.718Z,75.07
2024-01-16T15:19:30.581Z,75.29
2024-01-16T15:21:32.340Z,75.28
2024-01-16T15:23:34.063Z,75.20
2024-01-16T15:25:35.850Z,75.13
2024-01-16T15:27:37.716Z,75.06
2024-01-16T15:29:39.470Z,75.17
2024-01-16T15:31:41.453Z,75.12
2024-01-16T15:33:43.272Z,75.41
2024-01-16T15:35:45.000Z,75.57
2024-01-16T15:37:47.138Z,75.49
2024-01-16T15:39:49.352Z,75.68
2024-01-16T15:41:51.203Z,75.69
2024-01-16T15:43:53.000Z,75.76
2024-01-16T15:45:54.712Z,75.87
2024-01-16T15:47:56.681Z,76.07
2024-01-16T15:49:58.980Z,75.83
2024-01-16T15:52:00.652Z,76.02
2024-01-16T15:54:02.513Z,76.33
2024-01-16T15:56:08.748Z,75.97
2024-01-16T15:58:13.533Z,76.03
2024-01-16T16:00:17.487Z,75.90
2024-01-16T16:02:20.025Z,75.91
2024-01-16T16:04:22.541Z,75.73
2024-01-16T16:06:24.427Z,75.82
2024-01-16T16:08:26.572Z,75.63
2024-01-16T16:10:28.553Z,75.42
2024-01-16T16:12:31.169Z,75.44
2024-01-16T16:14:32.891Z,75.40
2024-01-16T16:16:34.709Z,75.31
2024-01-16T16:18:38.264Z,75.57
2024-01-16T16:20:40.198Z,75.64
2024-01-16T16:22:42.227Z,75.58
2024-01-16T16:24:44.881Z,75.61
2024-01-16T16:26:47.159Z,75.58
2024-01-16T16:28:49.305Z,75.53
2024-01-16T16:30:51.030Z,75.47
2024-01-16T16:32:52.795Z,75.61
2024-01-16T16:34:54.763Z,75.82
2024-01-16T16:36:56.706Z,75.75
2024-01-16T16:39:00.738Z,75.96
2024-01-16T16:41:03.533Z,75.96
2024-01-16T16:43:05.636Z,75.92
2024-01-16T16:45:10.141Z,76.04
2024-01-16T16:47:12.513Z,76.32
2024-01-16T16:49:14.382Z,76.31
2024-01-16T16:51:21.015Z,76.27
2024-01-16T16:53:25.153Z,76.43
2024-01-16T16:55:28.876Z,76.83
2024-01-16T16:57:30.586Z,77.18
2024-01-16T16:59:32.542Z,77.34
2024-01-16T17:01:36.865Z,77.76
2024-01-16T17:03:39.925Z,77.95
2024-01-16T17:05:41.936Z,77.95
2024-01-16T17:07:43.931Z,78.50
2024-01-16T17:09:45.895Z,79.12
2024-01-16T17:11:47.925Z,79.01
2024-01-16T17:13:49.913Z,79.03
2024-01-16T17:15:51.696Z,79.27
2024-01-16T17:17:53.447Z,79.45
2024-01-16T17:19:55.256Z,79.50
2024-01-16T17:21:56.990Z,79.34
2024-01-16T17:23:58.813Z,79.56
2024-01-16T17:26:01.831Z,79.08
2024-01-16T17:28:03.845Z,79.23
2024-01-16T17:30:08.962Z,79.36
2024-01-16T17:32:10.652Z,79.19
2024-01-16T17:34:13.853Z,79.15
2024-01-16T17:36:17.654Z,79.19
2024-01-16T17:38:21.949Z,79.58
2024-01-16T17:40:23.904Z,79.62
2024-01-16T17:42:26.694Z,79.74
2024-01-16T17:44:28.503Z,79.59
2024-01-16T17:46:30.931Z,79.35
2024-01-16T17:48:35.627Z,79.51
2024-01-16T17:50:38.595Z,79.54
2024-01-16T17:52:40.425Z,79.14
2024-01-16T17:54:42.265Z,78.69
2024-01-16T17:56:49.698Z,78.78
2024-01-16T17:58:51.504Z,78.61
2024-01-16T18:00:54.516Z,78.46
2024-01-16T18:02:58.276Z,78.59
2024-01-16T18:05:00.164Z,78.59
2024-01-16T18:07:03.073Z,78.32
2024-01-16T18:09:11.117Z,77.87
2024-01-16T18:11:14.210Z,78.19
2024-01-16T18:13:16.536Z,78.04
2024-01-16T18:15:19.342Z,78.25
2024-01-16T18:17:23.557Z,78.06
2024-01-16T18:19:26.143Z,78.21
2024-01-16T18:21:28.074Z,78.24
2024-01-16T18:23:30.992Z,78.39
2024-01-16T18:25:33.893Z,78.69
2024-01-16T18:27:37.237Z,78.61
2024-01-16T18:29:38.987Z,78.17
2024-01-16T18:31:41.508Z,78.02
2024-01-16T18:33:44.979Z,77.67
2024-01-16T18:35:47.023Z,77.50
2024-01-16T18:37:49.001Z,77.15
2024-01-16T18:39:51.448Z,77.17
2024-01-16T18:41:53.217Z,77.15
2024-01-16T18:43:55.087Z,77.61
2024-01-16T18:45:58.144Z,77.72
2024-01-16T18:48:01.262Z,78.01
2024-01-16T18:50:04.334Z,78.44
2024-01-16T18:52:07.026Z,78.18
2024-01-16T18:54:09.362Z,78.21
2024-01-16T18:56:15.748Z,78.22
2024-01-16T18:58:18.200Z,78.20
2024-01-16T19:00:23.402Z,78.50
2024-01-16T19:04:30.508Z,78.56
2024-01-16T19:06:32.697Z,78.88
2024-01-16T19:08:34.630Z,79.52
2024-01-16T19:10:36.307Z,79.73
2024-01-16T19:12:38.014Z,79.67
2024-01-16T19:14:45.788Z,79.66
2024-01-16T19:16:51.348Z,79.53
2024-01-16T19:18:53.241Z,79.24
2024-01-16T19:20:55.124Z,78.78
2024-01-16T19:22:57.083Z,78.30
2024-01-16T19:25:00.934Z,78.46
2024-01-16T19:27:02.751Z,78.48
2024-01-16T19:29:04.543Z,78.60
2024-01-16T19:31:06.392Z,78.48
2024-01-16T19:33:09.581Z,78.65
2024-01-16T19:35:13.156Z,78.71
2024-01-16T19:37:15.477Z,78.58
2024-01-16T19:39:17.231Z,78.39
2024-01-16T19:41:21.107Z,78.61
2024-01-16T19:43:22.927Z,78.50
2024-01-16T19:45:24.797Z,78.79
2024-01-16T19:47:26.628Z,78.86
2024-01-16T19:49:28.382Z,78.61
2024-01-16T19:51:31.076Z,79.18
2024-01-16T19:53:33.414Z,79.44
2024-01-16T19:55:35.275Z,79.42
2024-01-16T19:57:37.071Z,79.27
2024-01-16T19:59:38.914Z,79.45
2024-01-16T20:01:40.880Z,79.85
2024-01-16T20:03:44.555Z,79.93
2024-01-16T20:05:46.935Z,79.73
2024-01-16T20:07:49.501Z,79.71
2024-01-16T20:09:51.332Z,79.86
2024-01-16T20:11:53.654Z,79.82
2024-01-16T20:13:55.685Z,79.76
2024-01-16T20:15:57.469Z,79.52
2024-01-16T20:18:02.751Z,79.25
2024-01-16T20:20:06.686Z,79.10
2024-01-16T20:22:08.709Z,78.94
2024-01-16T20:24:12.527Z,78.57
2024-01-16T20:26:14.302Z,78.83
2024-01-16T20:28:16.025Z,78.78
2024-01-16T20:30:18.645Z,78.82
2024-01-16T20:32:22.224Z,78.45
2024-01-16T20:34:24.362Z,78.26
2024-01-16T20:36:26.311Z,77.90
2024-01-16T20:38:28.112Z,77.70
2024-01-16T20:40:29.869Z,77.77
2024-01-16T20:42:32.610Z,77.60
2024-01-16T20:44:35.288Z,77.67
2024-01-16T20:46:38.743Z,77.69
2024-01-16T20:48:40.985Z,77.53
2024-01-16T20:50:43.010Z,77.25
2024-01-16T20:52:44.714Z,76.56
2024-01-16T20:54:46.455Z,76.42
2024-01-16T20:56:49.224Z,76.63
2024-01-16T20:58:51.162Z,76.47
2024-01-16T21:00:53.380Z,76.06
2024-01-16T21:02:57.552Z,75.36
2024-01-16T21:04:59.988Z,75.29
2024-01-16T21:07:04.787Z,75.28
2024-01-16T21:09:07.013Z,75.54
2024-01-16T21:11:08.754Z,75.73
2024-01-16T21:13:10.982Z,76.00
2024-01-16T21:15:12.668Z,76.31
2024-01-16T21:17:14.410Z,76.27
2024-01-16T21:19:19.537Z,76.25
2024-01-16T21:21:21.492Z,76.31
2024-01-16T21:23:23.234Z,76.17
2024-01-16T21:25:25.733Z,76.11
2024-01-16T21:27:27.459Z,76.71
2024-01-16T21:29:29.457Z,77.04
2024-01-16T21:31:31.242Z,77.16
2024-01-16T21:33:33.436Z,77.37
2024-01-16T21:35:35.475Z,77.32
2024-01-16T21:37:38.049Z,76.98
2024-01-16T21:39:39.827Z,76.94
2024-01-16T21:41:44.034Z,76.85
2024-01-16T21:43:46.002Z,76.32
2024-01-16T21:45:47.748Z,76.52
2024-01-16T21:47:49.716Z,76.48
2024-01-16T21:49:52.713Z,76.67
2024-01-16T21:51:54.697Z,76.06
2024-01-16T21:53:57.142Z,75.86
2024-01-16T21:55:58.974Z,76.03
2024-01-16T22:00:13.216Z,76.64
2024-01-16T22:02:15.994Z,76.02
2024-01-16T22:04:17.811Z,75.33
2024-01-16T22:06:21.520Z,74.98
2024-01-16T22:08:24.589Z,75.65
2024-01-16T22:10:26.302Z,75.72
2024-01-16T22:12:28.064Z,75.22
2024-01-16T22:14:30.050Z,74.54
2024-01-16T22:16:33.499Z,74.36
2024-01-16T22:18:35.894Z,75.02
2024-01-16T22:20:37.974Z,75.24
2024-01-16T22:22:41.144Z,75.14
2024-01-16T22:24:42.905Z,75.15
2024-01-16T22:26:45.081Z,75.46
2024-01-16T22:28:47.659Z,75.61
2024-01-16T22:30:49.458Z,75.58
2024-01-16T22:32:51.354Z,75.79
2024-01-16T22:34:53.226Z,75.96
2024-01-16T22:36:54.960Z,76.30
2024-01-16T22:38:56.757Z,76.30
2024-01-16T22:40:58.454Z,76.43
2024-01-16T22:43:00.225Z,76.30
2024-01-16T22:45:02.116Z,76.33
2024-01-16T22:47:04.185Z,76.31
2024-01-16T22:49:06.090Z,76.34
2024-01-16T22:51:08.048Z,76.30
2024-01-16T22:53:09.854Z,76.44
2024-01-16T22:55:11.758Z,76.06
2024-01-16T22:57:13.550Z,76.24
2024-01-16T22:59:15.403Z,76.37
2024-01-16T23:01:17.635Z,76.65
2024-01-16T23:03:20.976Z,76.80
2024-01-16T23:05:28.705Z,76.86
2024-01-16T23:07:31.500Z,76.85
2024-01-16T23:09:34.306Z,76.42
2024-01-16T23:11:36.798Z,76.68
2024-01-16T23:13:38.553Z,76.70
2024-01-16T23:15:40.233Z,76.58
2024-01-16T23:17:43.266Z,76.32
2024-01-16T23:19:45.364Z,76.17
2024-01-16T23:21:48.100Z,75.53
2024-01-16T23:23:52.035Z,75.44
2024-01-16T23:25:53.759Z,75.83
2024-01-16T23:27:55.519Z,75.66
2024-01-16T23:29:57.292Z,74.80
2024-01-16T23:31:59.141Z,74.87
2024-01-16T23:34:01.314Z,75.10
2024-01-16T23:36:03.411Z,74.72
2024-01-16T23:38:07.162Z,74.58
2024-01-16T23:40:10.868Z,74.36
2024-01-16T23:42:16.098Z,73.89
2024-01-16T23:44:18.635Z,73.68
2024-01-16T23:46:20.657Z,73.44
2024-01-16T23:48:22.536Z,73.65
2024-01-16T23:50:25.760Z,74.16
2024-01-16T23:52:27.750Z,74.29
2024-01-16T23:54:29.856Z,74.45
2024-01-16T23:56:31.527Z,74.65
2024-01-16T23:58:33.484Z,74.39
